METAR Formatted Surface Weather Observation
Issued by NWS

Home | Current Version | Previous Version | Text Only | Print | Product List | Glossary On
Versions: 1 2 3 4 5 6 7
000
SAUS42 KTAE 260331
MTR1J0
METAR K1J0 260258Z AUTO 00000KT 10SM CLR 24/24 A3011 RMK AO2 SLP152
T02440244 51003 $



USA.gov is the U.S. government's official web portal to all federal, state and local government web resources and services.